Time;durP1;ratioP1;P1;durP2;ratioP2;P2;SDS_P1;SDS_P2;PMS_P1;PMS_P2;Temp;Humidity;BMP_temperature;BMP_pressure;BME280_temperature;BME280_humidity;BME280_pressure;Samples;Min_cycle;Max_cycle;Signal;HPM_P1;HPM_P2
2022/10/21 00:01:20;;;;;;;35.85;22.80;;;10.80;99.90;;;;;;5047407;28;20509;-62
2022/10/21 00:03:46;;;;;;;41.03;24.63;;;;;;;;;;5038018;28;20081;-63
2022/10/21 00:06:11;;;;;;;43.88;25.05;;;11.40;99.90;;;;;;5038753;28;20113;-63
2022/10/21 00:08:37;;;;;;;40.67;23.85;;;11.60;99.90;;;;;;5043605;28;20444;-63
2022/10/21 00:11:05;;;;;;;39.78;24.35;;;11.70;99.90;;;;;;5020651;28;20067;-64
2022/10/21 00:13:33;;;;;;;37.63;23.52;;;12.00;99.90;;;;;;5041086;28;20491;-64
2022/10/21 00:16:12;;;;;;;42.08;25.90;;;11.40;99.90;;;;;;5037487;28;20029;-63
2022/10/21 00:18:40;;;;;;;40.20;23.40;;;11.50;99.90;;;;;;5014778;28;20064;-63
2022/10/21 00:21:17;;;;;;;41.58;24.80;;;10.90;99.90;;;;;;5036575;28;20048;-63
2022/10/21 00:23:43;;;;;;;43.10;23.98;;;10.70;99.90;;;;;;5049238;28;20045;-63
2022/10/21 00:26:09;;;;;;;40.22;23.77;;;10.90;99.90;;;;;;5042914;28;20037;-63
2022/10/21 00:28:35;;;;;;;34.70;21.17;;;;;;;;;;5034415;28;20055;-64
2022/10/21 00:31:04;;;;;;;40.60;24.35;;;11.00;99.90;;;;;;5049285;28;20120;-64
2022/10/21 00:33:29;;;;;;;51.80;28.42;;;11.40;99.90;;;;;;5044029;28;20383;-64
2022/10/21 00:35:58;;;;;;;35.20;22.48;;;11.50;99.90;;;;;;5035878;28;20041;-63
2022/10/21 00:38:24;;;;;;;42.15;24.85;;;11.70;99.90;;;;;;5043742;28;20040;-64
2022/10/21 00:40:50;;;;;;;43.33;25.33;;;10.80;99.90;;;;;;5034750;28;20491;-63
2022/10/21 00:43:16;;;;;;;69.95;32.50;;;11.30;99.90;;;;;;5033908;28;20045;-63
2022/10/21 00:45:42;;;;;;;42.65;26.40;;;11.00;99.90;;;;;;5035296;28;20100;-63
2022/10/21 00:48:10;;;;;;;36.72;23.13;;;10.90;99.90;;;;;;5041234;28;20068;-64
2022/10/21 00:50:48;;;;;;;38.28;22.83;;;10.80;99.90;;;;;;5026835;28;20045;-63
2022/10/21 00:53:15;;;;;;;41.60;25.42;;;10.70;99.90;;;;;;5040653;28;20037;-63
2022/10/21 00:56:00;;;;;;;45.30;27.13;;;10.90;99.90;;;;;;5044794;28;20308;-64
2022/10/21 00:58:29;;;;;;;36.37;21.57;;;11.10;99.90;;;;;;5052330;28;20114;-63
2022/10/21 01:00:56;;;;;;;39.35;24.33;;;11.00;99.90;;;;;;5039358;28;20322;-64
2022/10/21 01:03:24;;;;;;;48.95;26.25;;;;;;;;;;5035394;28;20541;-63
2022/10/21 01:05:51;;;;;;;47.72;24.67;;;11.10;99.90;;;;;;5041147;28;20133;-63
2022/10/21 01:08:18;;;;;;;47.75;28.10;;;11.10;99.90;;;;;;5046261;28;20155;-64
2022/10/21 01:10:44;;;;;;;42.40;24.55;;;10.90;99.90;;;;;;5038402;28;20033;-64
2022/10/21 01:13:15;;;;;;;47.00;27.25;;;11.00;99.90;;;;;;5039807;28;20049;-64
2022/10/21 01:15:56;;;;;;;46.30;26.45;;;11.10;99.90;;;;;;5036393;28;20088;-62
2022/10/21 01:18:57;;;;;;;44.13;26.25;;;10.80;99.90;;;;;;5047891;28;20032;-64
2022/10/21 01:21:27;;;;;;;48.13;27.27;;;11.20;99.90;;;;;;5047749;28;20041;-64
2022/10/21 01:24:22;;;;;;;51.00;28.40;;;;;;;;;;5037880;28;20128;-64
2022/10/21 01:26:57;;;;;;;51.88;29.50;;;;;;;;;;5031541;28;21183;-61
2022/10/21 01:29:50;;;;;;;58.13;31.23;;;11.00;99.90;;;;;;5044480;28;20120;-64
2022/10/21 01:32:49;;;;;;;53.53;28.77;;;11.50;99.90;;;;;;5042615;28;20129;-63
2022/10/21 01:35:27;;;;;;;49.42;27.00;;;11.00;99.90;;;;;;5026028;28;20353;-64
2022/10/21 01:38:34;;;;;;;47.97;26.17;;;11.00;99.90;;;;;;5040029;28;20040;-63
2022/10/21 01:41:12;;;;;;;39.28;23.55;;;10.90;99.90;;;;;;5017683;28;20521;-64
2022/10/21 01:43:57;;;;;;;47.17;26.50;;;11.20;99.90;;;;;;5042608;28;20041;-63
2022/10/21 01:46:23;;;;;;;;;;;;;;;;;;5035478;28;20088;-63
2022/10/21 01:48:55;;;;;;;52.55;28.65;;;11.10;99.90;;;;;;5040549;28;19920;-63
2022/10/21 01:51:22;;;;;;;53.22;27.73;;;11.80;99.90;;;;;;5045777;28;20050;-64
2022/10/21 01:53:53;;;;;;;43.33;25.42;;;11.50;99.90;;;;;;5019566;28;20408;-64
2022/10/21 01:56:20;;;;;;;47.45;27.88;;;11.90;99.90;;;;;;5039420;28;20046;-64
2022/10/21 01:58:47;;;;;;;48.33;28.95;;;11.30;99.90;;;;;;5036045;28;20048;-64
2022/10/21 02:01:15;;;;;;;51.40;28.60;;;12.10;99.90;;;;;;5038291;28;20427;-64
2022/10/21 02:03:44;;;;;;;59.20;32.95;;;11.50;99.90;;;;;;5017285;28;20617;-63
2022/10/21 02:06:12;;;;;;;44.45;27.00;;;11.60;99.90;;;;;;5039660;28;20056;-64
2022/10/21 02:08:39;;;;;;;48.97;26.77;;;12.00;99.90;;;;;;5041595;28;20118;-64
2022/10/21 02:11:08;;;;;;;56.85;29.75;;;11.30;99.90;;;;;;5036817;28;20048;-64
2022/10/21 02:13:55;;;;;;;51.95;28.27;;;11.90;99.90;;;;;;5040074;28;20026;-64
2022/10/21 02:16:25;;;;;;;50.53;29.17;;;11.20;99.90;;;;;;5017046;28;20041;-63
2022/10/21 02:18:51;;;;;;;44.38;25.35;;;12.10;99.90;;;;;;5040954;28;20498;-63
2022/10/21 02:21:23;;;;;;;47.65;28.17;;;12.20;99.90;;;;;;5026941;28;20049;-64
2022/10/21 02:23:56;;;;;;;48.00;27.83;;;12.40;99.90;;;;;;5039692;28;20037;-64
2022/10/21 02:26:24;;;;;;;45.58;28.15;;;12.20;99.90;;;;;;5019319;28;20046;-63
2022/10/21 02:28:57;;;;;;;46.80;25.40;;;12.40;99.90;;;;;;5046883;28;20463;-64
2022/10/21 02:31:50;;;;;;;50.25;28.02;;;12.10;99.90;;;;;;5040039;28;20091;-64
2022/10/21 02:34:36;;;;;;;45.78;26.95;;;12.50;99.90;;;;;;5049099;28;20060;-64
2022/10/21 02:37:14;;;;;;;42.70;25.63;;;;;;;;;;5038243;28;20037;-64
2022/10/21 02:39:50;;;;;;;44.17;26.05;;;12.40;99.90;;;;;;5040408;28;20506;-64
2022/10/21 02:42:21;;;;;;;38.03;23.75;;;12.40;99.90;;;;;;5034796;28;20037;-62
2022/10/21 02:44:47;;;;;;;45.38;25.33;;;12.30;99.90;;;;;;5038170;28;20556;-64
2022/10/21 02:47:15;;;;;;;44.05;26.88;;;12.60;99.90;;;;;;5037236;28;20057;-64
2022/10/21 02:49:42;;;;;;;51.00;28.60;;;12.50;99.90;;;;;;5038072;28;20493;-64
2022/10/21 02:52:07;;;;;;;50.50;29.63;;;12.70;99.90;;;;;;5030821;28;20289;-64
2022/10/21 02:54:33;;;;;;;38.63;23.92;;;12.50;99.90;;;;;;5041336;28;20033;-64
2022/10/21 02:56:58;;;;;;;47.58;27.75;;;12.80;99.90;;;;;;5037871;28;20034;-64
2022/10/21 02:59:24;;;;;;;48.20;27.80;;;12.70;99.90;;;;;;5039922;28;20116;-63
2022/10/21 03:01:50;;;;;;;39.90;24.63;;;;;;;;;;5037367;28;20108;-64
2022/10/21 03:04:16;;;;;;;37.03;23.95;;;13.00;99.90;;;;;;5031909;28;20044;-63
2022/10/21 03:06:41;;;;;;;45.95;26.52;;;12.00;99.90;;;;;;5038939;28;20041;-63
2022/10/21 03:09:07;;;;;;;46.35;27.38;;;12.70;99.90;;;;;;5044798;28;20293;-63
2022/10/21 03:11:33;;;;;;;47.03;27.70;;;;;;;;;;5036771;28;20047;-64
2022/10/21 03:13:58;;;;;;;51.22;28.45;;;12.70;99.90;;;;;;5037194;28;20041;-64
2022/10/21 03:16:24;;;;;;;50.25;28.95;;;12.90;99.90;;;;;;5047595;28;20036;-64
2022/10/21 03:18:50;;;;;;;59.38;31.73;;;12.80;99.90;;;;;;5036130;28;20494;-63
2022/10/21 03:21:15;;;;;;;58.42;29.67;;;13.70;99.90;;;;;;5037598;28;20041;-64
2022/10/21 03:23:41;;;;;;;41.22;22.30;;;13.70;99.90;;;;;;5039188;28;20068;-64
2022/10/21 03:26:06;;;;;;;51.13;28.30;;;12.80;99.90;;;;;;5044992;28;20033;-63
2022/10/21 03:28:32;;;;;;;45.22;27.20;;;;;;;;;;5066182;23;20045;-59
2022/10/21 03:30:58;;;;;;;48.58;27.98;;;12.90;99.90;;;;;;5084048;28;20036;-60
2022/10/21 03:33:24;;;;;;;44.75;26.27;;;12.80;99.90;;;;;;5089954;28;20473;-60
2022/10/21 03:35:49;;;;;;;46.13;27.85;;;12.70;99.90;;;;;;5078563;28;20032;-59
2022/10/21 03:38:15;;;;;;;52.28;28.67;;;12.80;99.90;;;;;;5064156;28;20067;-60
2022/10/21 03:40:40;;;;;;;47.53;27.77;;;13.00;99.90;;;;;;5082589;28;20097;-60
2022/10/21 03:43:06;;;;;;;43.47;26.33;;;12.90;99.90;;;;;;5083399;28;20035;-60
2022/10/21 03:45:31;;;;;;;49.53;26.95;;;12.80;99.90;;;;;;5084572;28;20048;-59
2022/10/21 03:47:57;;;;;;;43.22;26.08;;;13.20;99.90;;;;;;5083918;28;20100;-59
2022/10/21 03:50:23;;;;;;;42.80;26.45;;;13.00;99.90;;;;;;5087559;28;20110;-58
2022/10/21 03:52:48;;;;;;;41.88;25.35;;;13.50;99.90;;;;;;5084561;28;20028;-58
2022/10/21 03:55:16;;;;;;;46.20;25.75;;;;;;;;;;5081311;28;20036;-57
2022/10/21 03:57:41;;;;;;;35.70;22.48;;;13.00;99.90;;;;;;5064586;28;20456;-58
2022/10/21 04:00:08;;;;;;;45.28;24.13;;;13.30;99.90;;;;;;5082833;28;20040;-58
2022/10/21 04:02:33;;;;;;;45.35;26.13;;;13.40;99.90;;;;;;5085434;28;20037;-58
2022/10/21 04:04:59;;;;;;;45.72;25.23;;;13.10;99.90;;;;;;5083759;28;20044;-58
2022/10/21 04:07:24;;;;;;;42.97;23.58;;;13.30;99.90;;;;;;5069216;28;20398;-58
2022/10/21 04:09:50;;;;;;;33.80;22.30;;;13.20;99.90;;;;;;5084675;28;20032;-58
2022/10/21 04:12:15;;;;;;;37.92;22.65;;;13.40;99.90;;;;;;5082312;28;20042;-58
2022/10/21 04:14:41;;;;;;;34.17;20.10;;;;;;;;;;5084018;28;20616;-58
2022/10/21 04:17:07;;;;;;;36.80;22.23;;;;;;;;;;5082686;28;20177;-58
2022/10/21 04:19:36;;;;;;;38.58;22.42;;;13.10;99.90;;;;;;5067445;28;20093;-58
2022/10/21 04:22:05;;;;;;;33.17;20.55;;;13.40;99.90;;;;;;5066132;28;20032;-58
2022/10/21 04:24:33;;;;;;;45.00;25.27;;;13.40;99.90;;;;;;5060614;28;20191;-58
2022/10/21 04:26:58;;;;;;;38.90;22.17;;;13.40;99.90;;;;;;5059744;28;20044;-58
2022/10/21 04:29:27;;;;;;;37.97;22.80;;;13.50;99.90;;;;;;5050310;28;20037;-58
2022/10/21 04:31:52;;;;;;;34.83;20.77;;;13.50;99.90;;;;;;5055731;28;20031;-57
2022/10/21 04:34:27;;;;;;;39.03;22.92;;;12.90;99.90;;;;;;5064499;28;20072;-58
2022/10/21 04:36:59;;;;;;;36.47;21.48;;;;;;;;;;5051684;28;20553;-60
2022/10/21 04:39:28;;;;;;;37.20;21.50;;;;;;;;;;5085598;28;20040;-60
2022/10/21 04:41:54;;;;;;;36.25;21.33;;;13.60;99.90;;;;;;5081414;28;20040;-59
2022/10/21 04:44:23;;;;;;;34.75;21.33;;;13.50;99.90;;;;;;5077077;28;20485;-59
2022/10/21 04:46:51;;;;;;;37.97;21.85;;;13.50;99.90;;;;;;5065148;28;20082;-60
2022/10/21 04:49:26;;;;;;;36.97;22.45;;;13.60;99.90;;;;;;5057647;28;20033;-60
2022/10/21 04:51:57;;;;;;;34.33;20.17;;;13.60;99.90;;;;;;5058490;28;20394;-60
2022/10/21 04:54:23;;;;;;;41.30;23.27;;;13.60;99.90;;;;;;5051377;28;20045;-60
2022/10/21 04:56:49;;;;;;;38.78;22.98;;;14.20;99.90;;;;;;5054572;28;22297;-59
2022/10/21 04:59:17;;;;;;;41.08;24.58;;;13.60;99.90;;;;;;5049021;28;20124;-60
2022/10/21 05:02:01;;;;;;;37.03;22.05;;;13.50;99.90;;;;;;5052648;28;20036;-60
2022/10/21 05:04:26;;;;;;;32.58;20.45;;;13.90;99.90;;;;;;5069415;28;20119;-59
2022/10/21 05:06:52;;;;;;;43.25;24.25;;;14.00;99.90;;;;;;5088714;28;20116;-60
2022/10/21 05:09:17;;;;;;;34.83;20.52;;;13.50;99.90;;;;;;5078188;28;20035;-59
2022/10/21 05:11:43;;;;;;;31.92;21.23;;;13.50;99.90;;;;;;5087184;28;20063;-60
2022/10/21 05:14:09;;;;;;;41.45;24.45;;;13.30;99.90;;;;;;5063037;28;20040;-60
2022/10/21 05:16:34;;;;;;;38.42;23.02;;;14.20;99.90;;;;;;5064842;28;20051;-59
2022/10/21 05:19:00;;;;;;;35.58;22.60;;;13.20;99.90;;;;;;5067460;28;20383;-60
2022/10/21 05:21:26;;;;;;;40.97;24.50;;;13.00;99.90;;;;;;5045762;28;20541;-60
2022/10/21 05:23:51;;;;;;;36.70;23.77;;;13.50;99.90;;;;;;5062818;28;20040;-60
2022/10/21 05:26:17;;;;;;;40.72;24.17;;;13.10;99.90;;;;;;5057261;28;20112;-60
2022/10/21 05:28:42;;;;;;;41.13;24.55;;;13.30;99.90;;;;;;5079497;28;20047;-60
2022/10/21 05:31:08;;;;;;;43.55;24.60;;;13.10;99.90;;;;;;5078245;28;20089;-60
2022/10/21 05:33:33;;;;;;;45.42;25.45;;;13.20;99.90;;;;;;5082458;28;20517;-59
2022/10/21 05:36:05;;;;;;;43.97;26.25;;;13.20;99.90;;;;;;5079637;28;20058;-60
2022/10/21 05:38:34;;;;;;;39.30;24.00;;;12.80;99.90;;;;;;5082415;28;20594;-60
2022/10/21 05:41:00;;;;;;;44.03;26.58;;;13.00;99.90;;;;;;5088131;28;20040;-60
2022/10/21 05:43:26;;;;;;;45.00;27.33;;;13.10;99.90;;;;;;5085356;28;20481;-60
2022/10/21 05:45:52;;;;;;;46.47;26.42;;;13.20;99.90;;;;;;5088793;28;20163;-59
2022/10/21 05:48:19;;;;;;;50.15;27.60;;;12.60;99.90;;;;;;5067973;28;20441;-60
2022/10/21 05:50:46;;;;;;;48.92;27.98;;;13.10;99.90;;;;;;5088428;28;20517;-59
2022/10/21 05:53:12;;;;;;;44.78;24.85;;;13.10;99.90;;;;;;5086382;28;20036;-60
2022/10/21 05:55:38;;;;;;;41.72;24.00;;;13.00;99.90;;;;;;5063252;28;20402;-60
2022/10/21 05:58:04;;;;;;;47.55;26.52;;;12.60;99.90;;;;;;5087483;28;20032;-60
2022/10/21 06:00:53;;;;;;;54.22;27.75;;;12.80;99.90;;;;;;5084284;28;20036;-60
2022/10/21 06:03:23;;;;;;;49.65;27.20;;;13.00;99.90;;;;;;5069653;28;20035;-60
2022/10/21 06:05:49;;;;;;;64.60;28.48;;;12.90;99.90;;;;;;5082460;28;20048;-60
2022/10/21 06:08:16;;;;;;;55.13;27.73;;;12.80;99.90;;;;;;5083177;28;20417;-60
2022/10/21 06:10:42;;;;;;;38.88;20.67;;;;;;;;;;5084538;28;20482;-63
2022/10/21 06:13:07;;;;;;;51.67;27.75;;;12.50;99.90;;;;;;5080098;28;20710;-60
2022/10/21 06:15:34;;;;;;;51.33;30.05;;;12.90;99.90;;;;;;5085485;28;20044;-60
2022/10/21 06:18:00;;;;;;;84.55;58.75;;;12.20;99.90;;;;;;5075797;28;20032;-59
2022/10/21 06:20:26;;;;;;;55.97;30.35;;;12.50;99.90;;;;;;5080322;28;20058;-59
2022/10/21 06:22:52;;;;;;;60.03;31.08;;;;;;;;;;5054016;28;20455;-59
2022/10/21 06:25:17;;;;;;;48.50;27.10;;;12.40;99.90;;;;;;5054077;28;20484;-60
2022/10/21 06:27:43;;;;;;;59.95;30.08;;;12.40;99.90;;;;;;5068378;28;20124;-59
2022/10/21 06:30:09;;;;;;;57.75;32.72;;;12.40;99.90;;;;;;5072179;28;20690;-60
2022/10/21 06:32:35;;;;;;;59.50;31.02;;;12.40;99.90;;;;;;5067878;28;20028;-59
2022/10/21 06:35:01;;;;;;;65.43;31.35;;;12.50;99.90;;;;;;5064769;28;20478;-60
2022/10/21 06:37:26;;;;;;;54.58;29.83;;;12.50;99.90;;;;;;5053456;28;20127;-60
2022/10/21 06:39:52;;;;;;;53.22;33.60;;;12.30;99.90;;;;;;5076121;28;20119;-59
2022/10/21 06:42:18;;;;;;;55.17;29.02;;;;;;;;;;5070079;28;20406;-59
2022/10/21 06:44:44;;;;;;;55.95;29.65;;;12.50;99.90;;;;;;5079472;28;20150;-59
2022/10/21 06:47:10;;;;;;;56.47;28.80;;;12.50;99.90;;;;;;5064218;28;20245;-59
2022/10/21 06:49:35;;;;;;;65.25;32.13;;;12.60;99.90;;;;;;5066904;28;20104;-59
2022/10/21 06:52:01;;;;;;;57.90;31.63;;;12.50;99.90;;;;;;5072072;28;20035;-59
2022/10/21 06:54:27;;;;;;;58.38;28.33;;;;;;;;;;5071181;28;20044;-59
2022/10/21 06:56:53;;;;;;;50.95;26.98;;;12.40;99.90;;;;;;5072436;28;20039;-59
2022/10/21 06:59:18;;;;;;;75.45;54.15;;;12.70;99.90;;;;;;5062489;28;20037;-60
2022/10/21 07:01:44;;;;;;;66.85;32.25;;;12.50;99.90;;;;;;5076266;28;20035;-59
2022/10/21 07:04:10;;;;;;;52.28;30.75;;;;;;;;;;5068520;28;20045;-59
2022/10/21 07:06:36;;;;;;;61.20;30.48;;;12.00;99.90;;;;;;5066184;28;20490;-60
2022/10/21 07:09:04;;;;;;;74.97;34.63;;;12.40;99.90;;;;;;5064225;28;20046;-58
2022/10/21 07:11:29;;;;;;;62.13;33.45;;;12.30;99.90;;;;;;5054350;28;20072;-59
2022/10/21 07:13:55;;;;;;;44.90;27.17;;;12.40;99.90;;;;;;5072115;28;20113;-59
2022/10/21 07:16:23;;;;;;;51.88;27.23;;;;;;;;;;5054582;28;20049;-60
2022/10/21 07:18:48;;;;;;;49.95;28.02;;;12.40;99.90;;;;;;5056636;28;20055;-58
2022/10/21 07:21:17;;;;;;;55.67;29.60;;;12.30;99.90;;;;;;5053222;28;20036;-60
2022/10/21 07:23:43;;;;;;;58.08;30.90;;;;;;;;;;5036252;28;20063;-59
2022/10/21 07:26:09;;;;;;;51.90;29.30;;;12.70;99.90;;;;;;5053749;28;20406;-59
2022/10/21 07:28:35;;;;;;;70.93;36.13;;;12.80;99.90;;;;;;5054624;28;20075;-59
2022/10/21 07:31:03;;;;;;;55.63;31.13;;;12.90;99.90;;;;;;5054619;28;20053;-59
2022/10/21 07:33:29;;;;;;;59.25;37.75;;;12.60;99.90;;;;;;5057240;28;20040;-59
2022/10/21 07:36:04;;;;;;;53.72;30.25;;;;;;;;;;5070026;28;20447;-57
2022/10/21 07:38:30;;;;;;;79.82;67.18;;;12.90;99.90;;;;;;5078974;28;20414;-59
2022/10/21 07:40:57;;;;;;;59.47;32.42;;;;;;;;;;5084950;28;20040;-59
2022/10/21 07:43:23;;;;;;;48.03;26.65;;;13.20;99.90;;;;;;5081381;28;20558;-59
2022/10/21 07:45:49;;;;;;;50.58;28.08;;;12.50;99.90;;;;;;5085225;28;20123;-59
2022/10/21 07:48:14;;;;;;;56.10;29.15;;;13.20;99.90;;;;;;5081265;28;20071;-59
2022/10/21 07:50:40;;;;;;;58.33;30.23;;;12.70;99.90;;;;;;5056121;28;20041;-59
2022/10/21 07:53:06;;;;;;;49.40;26.52;;;13.80;99.90;;;;;;5071761;28;20047;-59
2022/10/21 07:55:32;;;;;;;43.03;27.60;;;;;;;;;;5060719;28;20040;-59
2022/10/21 07:57:58;;;;;;;41.05;25.55;;;12.90;99.90;;;;;;5044367;28;20048;-59
2022/10/21 08:00:23;;;;;;;46.28;27.20;;;13.30;99.90;;;;;;5053437;28;20442;-58
2022/10/21 08:02:55;;;;;;;40.50;24.92;;;13.50;99.90;;;;;;5057920;28;20350;-59
2022/10/21 08:05:22;;;;;;;51.17;27.40;;;13.20;99.90;;;;;;5066082;28;20048;-59
2022/10/21 08:07:48;;;;;;;45.70;25.52;;;12.90;99.90;;;;;;5044887;28;20266;-59
2022/10/21 08:10:14;;;;;;;46.05;26.17;;;13.10;99.90;;;;;;5060071;28;20081;-59
2022/10/21 08:12:40;;;;;;;48.60;27.45;;;13.60;99.90;;;;;;5068193;28;20047;-60
2022/10/21 08:15:06;;;;;;;49.03;29.25;;;13.20;99.90;;;;;;5064203;28;20031;-59
2022/10/21 08:17:32;;;;;;;47.95;26.63;;;13.60;99.90;;;;;;5075213;28;20169;-60
2022/10/21 08:19:57;;;;;;;39.58;25.10;;;13.50;99.90;;;;;;5084742;28;20510;-59
2022/10/21 08:22:23;;;;;;;42.08;25.13;;;14.20;99.90;;;;;;5062296;28;20040;-59
2022/10/21 08:24:49;;;;;;;42.42;25.75;;;14.30;99.90;;;;;;5068909;28;20482;-60
2022/10/21 08:27:14;;;;;;;32.67;20.90;;;13.40;99.90;;;;;;5063350;28;20142;-60
2022/10/21 08:29:40;;;;;;;42.40;24.05;;;13.80;99.90;;;;;;5072072;28;20040;-59
2022/10/21 08:32:06;;;;;;;35.75;22.92;;;;;;;;;;5083464;28;20082;-60
2022/10/21 08:34:31;;;;;;;38.90;23.30;;;14.10;99.90;;;;;;5075302;28;20051;-60
2022/10/21 08:36:57;;;;;;;37.70;21.10;;;14.00;99.90;;;;;;5078732;28;20108;-60
2022/10/21 08:39:25;;;;;;;38.28;23.27;;;14.50;99.90;;;;;;5069054;28;20032;-60
2022/10/21 08:42:07;;;;;;;29.73;20.00;;;14.20;99.90;;;;;;5086490;28;20048;-60
2022/10/21 08:44:41;;;;;;;33.00;21.42;;;13.80;99.90;;;;;;5089034;28;20048;-59
2022/10/21 08:47:34;;;;;;;37.80;22.45;;;14.60;99.90;;;;;;5085361;28;20279;-59
2022/10/21 08:50:12;;;;;;;36.97;21.52;;;14.30;99.90;;;;;;5028665;28;20056;-59
2022/10/21 08:52:48;;;;;;;35.45;21.77;;;14.50;99.90;;;;;;5058265;28;20464;-60
2022/10/21 08:55:22;;;;;;;30.15;19.10;;;14.90;99.90;;;;;;5054932;28;20037;-60
2022/10/21 08:57:49;;;;;;;32.20;20.08;;;15.00;99.90;;;;;;5058027;28;20032;-60
2022/10/21 09:00:21;;;;;;;28.35;19.48;;;14.60;99.90;;;;;;5055704;28;20490;-59
2022/10/21 09:03:25;;;;;;;30.83;18.33;;;14.60;99.90;;;;;;5058547;28;20498;-60
2022/10/21 09:06:22;;;;;;;31.98;19.10;;;15.00;99.90;;;;;;4965588;28;20043;-59
2022/10/21 09:08:58;;;;;;;28.10;17.08;;;14.80;99.90;;;;;;4942496;28;20145;-60
2022/10/21 09:11:58;;;;;;;25.38;16.20;;;14.80;99.90;;;;;;5011978;28;20045;-60
2022/10/21 09:14:35;;;;;;;27.88;17.70;;;14.40;99.90;;;;;;5071877;28;20563;-60
2022/10/21 09:17:17;;;;;;;27.77;20.00;;;14.70;99.90;;;;;;5063941;28;20043;-60
2022/10/21 09:19:50;;;;;;;28.40;16.58;;;;;;;;;;5077368;28;20385;-60
2022/10/21 09:22:43;;;;;;;27.17;17.10;;;14.60;99.90;;;;;;5074647;28;20499;-60
2022/10/21 09:25:22;;;;;;;22.65;14.30;;;14.60;99.90;;;;;;5059078;28;20152;-60
2022/10/21 09:27:49;;;;;;;23.17;15.57;;;12.90;99.90;;;;;;5129724;22;20556;-64
2022/10/21 09:30:23;;;;;;;22.38;14.98;;;14.60;99.90;;;;;;5068199;28;20032;-65
2022/10/21 09:32:54;;;;;;;22.60;14.82;;;15.60;99.90;;;;;;5049141;28;20387;-64
2022/10/21 09:35:29;;;;;;;21.13;14.40;;;15.30;99.90;;;;;;5070547;28;20052;-63
2022/10/21 09:38:07;;;;;;;21.13;13.65;;;15.50;99.90;;;;;;5077880;28;20036;-64
2022/10/21 09:40:33;;;;;;;22.60;14.25;;;;;;;;;;5073349;28;20043;-65
2022/10/21 09:43:00;;;;;;;19.67;13.80;;;15.60;99.90;;;;;;5080673;28;20082;-65
2022/10/21 09:45:38;;;;;;;19.15;13.65;;;15.30;99.90;;;;;;5075938;28;20517;-64
2022/10/21 09:48:16;;;;;;;20.40;13.75;;;15.00;99.90;;;;;;5076965;28;20517;-64
2022/10/21 09:50:46;;;;;;;21.55;13.30;;;15.10;99.90;;;;;;5081525;28;20131;-64
2022/10/21 09:53:55;;;;;;;18.48;12.80;;;16.30;99.90;;;;;;5090618;28;20063;-64
2022/10/21 09:56:44;;;;;;;19.23;11.73;;;15.10;99.90;;;;;;4983931;28;20047;-65
2022/10/21 09:59:16;;;;;;;20.42;12.73;;;15.50;99.90;;;;;;5099403;28;20386;-65
2022/10/21 10:01:46;;;;;;;17.70;11.35;;;15.30;99.90;;;;;;5080906;28;20112;-64
2022/10/21 10:04:32;;;;;;;18.58;12.10;;;15.20;99.90;;;;;;5101699;28;20520;-64
2022/10/21 10:07:53;;;;;;;18.98;12.40;;;15.20;99.90;;;;;;5095082;28;20039;-64
2022/10/21 10:10:36;;;;;;;18.88;11.65;;;14.90;99.90;;;;;;5020493;28;20044;-65
2022/10/21 10:13:15;;;;;;;14.65;10.60;;;14.90;99.90;;;;;;5083762;28;20498;-66
2022/10/21 10:15:40;;;;;;;17.80;11.43;;;15.40;99.90;;;;;;5096202;28;20040;-66
2022/10/21 10:18:21;;;;;;;18.45;12.13;;;15.90;99.90;;;;;;5090475;28;20031;-66
2022/10/21 10:21:04;;;;;;;16.92;11.80;;;15.50;99.90;;;;;;5097741;28;20040;-66
2022/10/21 10:23:40;;;;;;;17.25;11.45;;;15.30;99.90;;;;;;5072829;28;20054;-66
2022/10/21 10:26:06;;;;;;;18.88;13.55;;;16.00;99.90;;;;;;5089066;28;20492;-66
2022/10/21 10:28:32;;;;;;;18.95;10.88;;;15.00;99.90;;;;;;5072929;28;20482;-66
2022/10/21 10:30:57;;;;;;;18.85;13.05;;;15.40;99.90;;;;;;5094547;28;20032;-66
2022/10/21 10:33:27;;;;;;;17.75;12.57;;;15.80;99.90;;;;;;5088258;28;20035;-66
2022/10/21 10:35:54;;;;;;;22.20;12.23;;;15.30;99.90;;;;;;5073204;28;20490;-66
2022/10/21 10:38:31;;;;;;;18.23;11.85;;;16.30;99.90;;;;;;5089798;28;20393;-66
2022/10/21 10:41:10;;;;;;;19.17;12.82;;;14.70;99.90;;;;;;5090707;28;20043;-66
2022/10/21 10:43:52;;;;;;;20.92;11.50;;;14.50;99.90;;;;;;5097907;28;20074;-66
2022/10/21 10:46:33;;;;;;;15.32;10.98;;;15.30;99.90;;;;;;5095475;28;20063;-66
2022/10/21 10:49:20;;;;;;;15.95;11.65;;;15.40;99.90;;;;;;5089374;28;20032;-66
2022/10/21 10:51:47;;;;;;;17.95;10.75;;;15.30;99.90;;;;;;5101474;28;20044;-66
2022/10/21 10:54:25;;;;;;;16.73;11.50;;;15.80;99.90;;;;;;5090921;28;20032;-66
2022/10/21 10:56:57;;;;;;;14.70;10.68;;;15.60;99.90;;;;;;5089861;28;20044;-66
2022/10/21 10:59:42;;;;;;;20.98;16.27;;;16.20;99.90;;;;;;5084549;28;20513;-66
2022/10/21 11:02:08;;;;;;;16.33;12.38;;;16.10;99.90;;;;;;5084035;28;20129;-66
2022/10/21 11:04:51;;;;;;;22.05;17.10;;;16.50;99.90;;;;;;5084550;28;20048;-67
2022/10/21 11:07:24;;;;;;;21.23;12.10;;;15.40;99.90;;;;;;5087870;28;20047;-66
2022/10/21 11:09:55;;;;;;;23.73;20.05;;;15.80;99.90;;;;;;5087309;28;20032;-66
2022/10/21 11:12:25;;;;;;;20.80;15.73;;;16.10;99.90;;;;;;5088151;28;20463;-66
2022/10/21 11:14:58;;;;;;;25.35;22.70;;;15.40;99.90;;;;;;5085364;28;20035;-66
2022/10/21 11:17:37;;;;;;;15.75;10.32;;;15.50;99.90;;;;;;5085423;28;20040;-67
2022/10/21 11:20:11;;;;;;;15.52;11.13;;;15.90;99.90;;;;;;5083343;28;20036;-66
2022/10/21 11:22:42;;;;;;;16.95;10.73;;;16.20;99.90;;;;;;5092975;28;20040;-66
2022/10/21 11:25:23;;;;;;;15.13;9.90;;;16.00;99.90;;;;;;5090050;28;20111;-66
2022/10/21 11:28:26;;;;;;;15.60;10.10;;;16.20;99.90;;;;;;5090344;28;20028;-67
2022/10/21 11:31:13;;;;;;;15.35;8.88;;;15.50;99.90;;;;;;5095544;28;20529;-66
2022/10/21 11:34:00;;;;;;;15.55;8.55;;;16.60;99.90;;;;;;5084524;28;20032;-67
2022/10/21 11:36:34;;;;;;;12.55;7.85;;;15.70;99.90;;;;;;5084424;28;20032;-67
2022/10/21 11:39:37;;;;;;;15.07;8.43;;;16.60;99.90;;;;;;5062973;28;20061;-67
2022/10/21 11:42:14;;;;;;;15.82;8.40;;;16.50;99.90;;;;;;5084258;28;20036;-67
2022/10/21 11:44:48;;;;;;;12.35;8.07;;;16.70;99.90;;;;;;5097508;28;20048;-67
2022/10/21 11:47:32;;;;;;;12.35;7.93;;;16.50;99.90;;;;;;5085961;28;20040;-66
2022/10/21 11:50:16;;;;;;;13.30;7.85;;;16.50;99.90;;;;;;5085566;28;20476;-66
2022/10/21 11:53:11;;;;;;;13.13;8.80;;;16.50;99.90;;;;;;5091162;28;20058;-66
2022/10/21 11:55:39;;;;;;;12.60;7.70;;;15.70;99.90;;;;;;5092800;28;20459;-66
2022/10/21 11:58:18;;;;;;;15.52;7.78;;;16.40;99.90;;;;;;5078884;28;20732;-66
2022/10/21 12:01:08;;;;;;;10.80;7.65;;;16.10;99.90;;;;;;5105191;28;20036;-66
2022/10/21 12:03:58;;;;;;;15.05;8.73;;;16.40;99.90;;;;;;5091626;28;20553;-66
2022/10/21 12:06:29;;;;;;;12.88;7.93;;;16.20;99.90;;;;;;5090225;28;20047;-66
2022/10/21 12:09:00;;;;;;;12.15;7.97;;;16.70;99.90;;;;;;5090633;28;20036;-66
2022/10/21 12:11:41;;;;;;;12.40;8.10;;;16.40;99.90;;;;;;5059686;28;20535;-66
2022/10/21 12:14:40;;;;;;;12.65;8.05;;;15.90;99.90;;;;;;5097295;28;20032;-66
2022/10/21 12:17:10;;;;;;;13.02;7.40;;;16.60;99.90;;;;;;5099867;28;20552;-66
2022/10/21 12:19:36;;;;;;;13.75;8.40;;;16.70;99.90;;;;;;5099624;28;20115;-66
2022/10/21 12:22:02;;;;;;;13.80;8.40;;;16.70;99.90;;;;;;5095550;28;20148;-65
2022/10/21 12:25:08;;;;;;;13.50;8.82;;;16.80;99.90;;;;;;5098870;28;20043;-65
2022/10/21 12:27:57;;;;;;;11.60;7.65;;;16.60;99.90;;;;;;5072945;28;20517;-65
2022/10/21 12:30:35;;;;;;;14.88;7.13;;;16.70;99.90;;;;;;5074896;28;20075;-65
2022/10/21 12:33:07;;;;;;;13.02;7.45;;;16.90;99.90;;;;;;5070870;28;20054;-65
2022/10/21 12:35:52;;;;;;;13.85;7.22;;;16.80;99.90;;;;;;5076776;28;20036;-65
2022/10/21 12:38:51;;;;;;;11.32;6.35;;;17.70;91.00;;;;;;5075513;28;20086;-66
2022/10/21 12:41:24;;;;;;;12.32;6.20;;;17.60;18.30;;;;;;5062556;28;20082;-65
2022/10/21 12:44:00;;;;;;;10.77;5.50;;;19.40;1.00;;;;;;5103094;28;20032;-66
2022/10/21 12:46:59;;;;;;;9.25;5.97;;;20.40;99.90;;;;;;5091674;28;20165;-66
2022/10/21 12:49:32;;;;;;;11.57;5.72;;;21.50;99.90;;;;;;5067035;28;20122;-66
2022/10/21 12:52:16;;;;;;;9.38;5.53;;;22.50;99.90;;;;;;5084285;28;20031;-66
2022/10/21 12:54:55;;;;;;;11.80;5.95;;;21.40;1.00;;;;;;5092911;28;20047;-66
2022/10/21 12:57:32;;;;;;;10.55;5.30;;;22.70;1.00;;;;;;5094843;28;20028;-66
2022/10/21 13:00:25;;;;;;;10.45;5.07;;;23.30;1.00;;;;;;5092143;28;20097;-66
2022/10/21 13:02:59;;;;;;;11.20;5.60;;;23.20;1.00;;;;;;5074326;28;20443;-69